sensor_id;sensor_type;location;lat;lon;timestamp;P1;durP1;ratioP1;P2;durP2;ratioP2
56285;SDS011;42191;47.562;9.686;2022-07-05T00:00:37;30.42;;;28.63;;
56285;SDS011;42191;47.562;9.686;2022-07-05T00:03:03;27.65;;;25.95;;
56285;SDS011;42191;47.562;9.686;2022-07-05T00:05:29;28.33;;;26.63;;
56285;SDS011;42191;47.562;9.686;2022-07-05T00:07:55;28.60;;;26.90;;
56285;SDS011;42191;47.562;9.686;2022-07-05T00:10:22;28.70;;;26.95;;
56285;SDS011;42191;47.562;9.686;2022-07-05T00:12:48;28.30;;;26.60;;
56285;SDS011;42191;47.562;9.686;2022-07-05T00:15:14;28.10;;;26.40;;
56285;SDS011;42191;47.562;9.686;2022-07-05T00:17:40;29.88;;;28.02;;
56285;SDS011;42191;47.562;9.686;2022-07-05T00:20:06;28.38;;;26.63;;
56285;SDS011;42191;47.562;9.686;2022-07-05T00:22:33;30.15;;;28.02;;
56285;SDS011;42191;47.562;9.686;2022-07-05T00:24:59;28.90;;;27.20;;
56285;SDS011;42191;47.562;9.686;2022-07-05T00:27:25;29.83;;;28.02;;
56285;SDS011;42191;47.562;9.686;2022-07-05T00:29:51;30.40;;;28.60;;
56285;SDS011;42191;47.562;9.686;2022-07-05T00:32:17;28.92;;;27.05;;
56285;SDS011;42191;47.562;9.686;2022-07-05T00:34:43;30.55;;;28.65;;
56285;SDS011;42191;47.562;9.686;2022-07-05T00:37:09;28.15;;;26.45;;
56285;SDS011;42191;47.562;9.686;2022-07-05T00:39:35;28.75;;;27.05;;
56285;SDS011;42191;47.562;9.686;2022-07-05T00:42:02;30.25;;;28.38;;
56285;SDS011;42191;47.562;9.686;2022-07-05T00:44:33;29.73;;;27.83;;
56285;SDS011;42191;47.562;9.686;2022-07-05T00:47:04;29.85;;;28.05;;
56285;SDS011;42191;47.562;9.686;2022-07-05T00:49:32;29.33;;;27.55;;
56285;SDS011;42191;47.562;9.686;2022-07-05T00:51:59;31.40;;;29.50;;
56285;SDS011;42191;47.562;9.686;2022-07-05T00:54:26;27.83;;;26.13;;
56285;SDS011;42191;47.562;9.686;2022-07-05T00:56:53;30.40;;;28.50;;
56285;SDS011;42191;47.562;9.686;2022-07-05T00:59:19;30.48;;;28.67;;
56285;SDS011;42191;47.562;9.686;2022-07-05T01:01:45;29.25;;;27.35;;
56285;SDS011;42191;47.562;9.686;2022-07-05T01:04:11;30.25;;;28.35;;
56285;SDS011;42191;47.562;9.686;2022-07-05T01:06:38;29.20;;;27.40;;
56285;SDS011;42191;47.562;9.686;2022-07-05T01:09:07;30.02;;;28.15;;
56285;SDS011;42191;47.562;9.686;2022-07-05T01:11:38;30.50;;;28.70;;
56285;SDS011;42191;47.562;9.686;2022-07-05T01:14:05;27.98;;;26.38;;
56285;SDS011;42191;47.562;9.686;2022-07-05T01:16:36;29.40;;;27.65;;
56285;SDS011;42191;47.562;9.686;2022-07-05T01:19:04;29.95;;;28.25;;
56285;SDS011;42191;47.562;9.686;2022-07-05T01:21:38;29.08;;;27.38;;
56285;SDS011;42191;47.562;9.686;2022-07-05T01:24:07;29.58;;;27.88;;
56285;SDS011;42191;47.562;9.686;2022-07-05T01:26:37;32.33;;;30.42;;
56285;SDS011;42191;47.562;9.686;2022-07-05T01:29:05;30.73;;;28.73;;
56285;SDS011;42191;47.562;9.686;2022-07-05T01:31:32;29.80;;;28.00;;
56285;SDS011;42191;47.562;9.686;2022-07-05T01:33:58;29.48;;;27.58;;
56285;SDS011;42191;47.562;9.686;2022-07-05T01:36:24;28.92;;;27.13;;
56285;SDS011;42191;47.562;9.686;2022-07-05T01:38:51;28.40;;;26.63;;
56285;SDS011;42191;47.562;9.686;2022-07-05T01:41:17;28.55;;;26.85;;
56285;SDS011;42191;47.562;9.686;2022-07-05T01:43:43;28.80;;;27.00;;
56285;SDS011;42191;47.562;9.686;2022-07-05T01:46:09;28.17;;;26.23;;
56285;SDS011;42191;47.562;9.686;2022-07-05T01:48:37;29.38;;;27.60;;
56285;SDS011;42191;47.562;9.686;2022-07-05T01:51:16;29.52;;;27.73;;
56285;SDS011;42191;47.562;9.686;2022-07-05T01:53:46;30.60;;;28.80;;
56285;SDS011;42191;47.562;9.686;2022-07-05T01:56:16;29.05;;;27.25;;
56285;SDS011;42191;47.562;9.686;2022-07-05T01:58:43;29.77;;;28.08;;
56285;SDS011;42191;47.562;9.686;2022-07-05T02:01:10;31.55;;;29.65;;
56285;SDS011;42191;47.562;9.686;2022-07-05T02:03:39;28.60;;;26.65;;
56285;SDS011;42191;47.562;9.686;2022-07-05T02:06:05;29.33;;;27.42;;
56285;SDS011;42191;47.562;9.686;2022-07-05T02:08:33;31.98;;;30.08;;
56285;SDS011;42191;47.562;9.686;2022-07-05T02:10:59;29.00;;;27.20;;
56285;SDS011;42191;47.562;9.686;2022-07-05T02:13:25;30.77;;;28.88;;
56285;SDS011;42191;47.562;9.686;2022-07-05T02:15:51;28.63;;;26.92;;
56285;SDS011;42191;47.562;9.686;2022-07-05T02:18:17;29.92;;;28.13;;
56285;SDS011;42191;47.562;9.686;2022-07-05T02:20:43;29.35;;;27.55;;
56285;SDS011;42191;47.562;9.686;2022-07-05T02:23:10;27.67;;;25.98;;
56285;SDS011;42191;47.562;9.686;2022-07-05T02:25:36;29.35;;;27.55;;
56285;SDS011;42191;47.562;9.686;2022-07-05T02:28:02;30.38;;;28.58;;
56285;SDS011;42191;47.562;9.686;2022-07-05T02:30:28;27.67;;;25.98;;
56285;SDS011;42191;47.562;9.686;2022-07-05T02:32:55;28.35;;;26.70;;
56285;SDS011;42191;47.562;9.686;2022-07-05T02:38:04;28.75;;;27.05;;
56285;SDS011;42191;47.562;9.686;2022-07-05T02:40:30;29.13;;;27.33;;
56285;SDS011;42191;47.562;9.686;2022-07-05T02:42:56;29.17;;;27.48;;
56285;SDS011;42191;47.562;9.686;2022-07-05T02:45:22;29.80;;;28.00;;
56285;SDS011;42191;47.562;9.686;2022-07-05T02:47:48;31.13;;;29.20;;
56285;SDS011;42191;47.562;9.686;2022-07-05T02:50:15;30.15;;;28.30;;
56285;SDS011;42191;47.562;9.686;2022-07-05T02:52:41;28.23;;;26.48;;
56285;SDS011;42191;47.562;9.686;2022-07-05T02:55:07;28.88;;;27.08;;
56285;SDS011;42191;47.562;9.686;2022-07-05T02:57:36;30.05;;;28.13;;
56285;SDS011;42191;47.562;9.686;2022-07-05T03:00:03;29.23;;;27.40;;
56285;SDS011;42191;47.562;9.686;2022-07-05T03:02:30;29.67;;;27.80;;
56285;SDS011;42191;47.562;9.686;2022-07-05T03:04:57;28.73;;;26.92;;
56285;SDS011;42191;47.562;9.686;2022-07-05T03:07:23;30.13;;;28.30;;
56285;SDS011;42191;47.562;9.686;2022-07-05T03:09:49;29.23;;;27.42;;
56285;SDS011;42191;47.562;9.686;2022-07-05T03:12:15;29.05;;;27.25;;
56285;SDS011;42191;47.562;9.686;2022-07-05T03:14:41;28.80;;;27.10;;
56285;SDS011;42191;47.562;9.686;2022-07-05T03:17:07;29.90;;;27.98;;
56285;SDS011;42191;47.562;9.686;2022-07-05T03:19:33;29.73;;;27.92;;
56285;SDS011;42191;47.562;9.686;2022-07-05T03:21:59;29.75;;;27.80;;
56285;SDS011;42191;47.562;9.686;2022-07-05T03:24:25;29.33;;;27.52;;
56285;SDS011;42191;47.562;9.686;2022-07-05T03:26:51;29.98;;;28.17;;
56285;SDS011;42191;47.562;9.686;2022-07-05T03:29:18;31.90;;;29.90;;
56285;SDS011;42191;47.562;9.686;2022-07-05T03:31:44;30.30;;;28.35;;
56285;SDS011;42191;47.562;9.686;2022-07-05T03:34:10;29.55;;;27.73;;
56285;SDS011;42191;47.562;9.686;2022-07-05T03:36:36;30.63;;;28.65;;
56285;SDS011;42191;47.562;9.686;2022-07-05T03:39:02;29.80;;;27.90;;
56285;SDS011;42191;47.562;9.686;2022-07-05T03:41:28;28.80;;;27.10;;
56285;SDS011;42191;47.562;9.686;2022-07-05T03:43:54;29.50;;;27.63;;
56285;SDS011;42191;47.562;9.686;2022-07-05T03:46:20;29.60;;;27.85;;
56285;SDS011;42191;47.562;9.686;2022-07-05T03:48:46;30.70;;;28.60;;
56285;SDS011;42191;47.562;9.686;2022-07-05T03:51:13;29.73;;;27.95;;
56285;SDS011;42191;47.562;9.686;2022-07-05T03:53:39;29.38;;;27.58;;
56285;SDS011;42191;47.562;9.686;2022-07-05T03:56:05;28.63;;;26.88;;
56285;SDS011;42191;47.562;9.686;2022-07-05T03:58:31;30.23;;;28.23;;
56285;SDS011;42191;47.562;9.686;2022-07-05T04:00:57;29.63;;;27.73;;
56285;SDS011;42191;47.562;9.686;2022-07-05T04:03:23;29.85;;;28.08;;
56285;SDS011;42191;47.562;9.686;2022-07-05T04:05:49;29.75;;;27.95;;
56285;SDS011;42191;47.562;9.686;2022-07-05T04:08:15;29.80;;;28.05;;
56285;SDS011;42191;47.562;9.686;2022-07-05T04:10:41;29.92;;;28.13;;
56285;SDS011;42191;47.562;9.686;2022-07-05T04:13:07;29.55;;;27.63;;
56285;SDS011;42191;47.562;9.686;2022-07-05T04:15:34;30.00;;;28.13;;
56285;SDS011;42191;47.562;9.686;2022-07-05T04:18:00;30.23;;;28.42;;
56285;SDS011;42191;47.562;9.686;2022-07-05T04:20:26;29.10;;;27.38;;
56285;SDS011;42191;47.562;9.686;2022-07-05T04:22:52;29.60;;;27.80;;
56285;SDS011;42191;47.562;9.686;2022-07-05T04:25:20;30.17;;;28.38;;
56285;SDS011;42191;47.562;9.686;2022-07-05T04:27:47;28.30;;;26.60;;
56285;SDS011;42191;47.562;9.686;2022-07-05T04:30:15;30.42;;;28.33;;
56285;SDS011;42191;47.562;9.686;2022-07-05T04:32:42;29.73;;;27.83;;
56285;SDS011;42191;47.562;9.686;2022-07-05T04:35:09;29.60;;;27.90;;
56285;SDS011;42191;47.562;9.686;2022-07-05T04:37:35;29.35;;;27.55;;
56285;SDS011;42191;47.562;9.686;2022-07-05T04:40:05;29.52;;;27.63;;
56285;SDS011;42191;47.562;9.686;2022-07-05T04:42:33;29.88;;;27.88;;
56285;SDS011;42191;47.562;9.686;2022-07-05T04:44:59;30.48;;;28.58;;
56285;SDS011;42191;47.562;9.686;2022-07-05T04:47:25;30.85;;;28.95;;
56285;SDS011;42191;47.562;9.686;2022-07-05T04:49:52;29.48;;;27.65;;
56285;SDS011;42191;47.562;9.686;2022-07-05T04:52:20;31.25;;;29.25;;
56285;SDS011;42191;47.562;9.686;2022-07-05T04:54:46;30.58;;;28.58;;
56285;SDS011;42191;47.562;9.686;2022-07-05T04:57:12;29.83;;;27.95;;
56285;SDS011;42191;47.562;9.686;2022-07-05T04:59:38;29.27;;;27.38;;
56285;SDS011;42191;47.562;9.686;2022-07-05T05:02:04;29.83;;;27.90;;
56285;SDS011;42191;47.562;9.686;2022-07-05T05:04:30;30.50;;;28.50;;
56285;SDS011;42191;47.562;9.686;2022-07-05T05:06:57;31.98;;;29.95;;
56285;SDS011;42191;47.562;9.686;2022-07-05T05:09:23;29.50;;;27.65;;
56285;SDS011;42191;47.562;9.686;2022-07-05T05:11:50;29.60;;;27.80;;
56285;SDS011;42191;47.562;9.686;2022-07-05T05:14:16;31.80;;;29.80;;
56285;SDS011;42191;47.562;9.686;2022-07-05T05:16:42;30.33;;;28.45;;
56285;SDS011;42191;47.562;9.686;2022-07-05T05:19:08;31.25;;;29.38;;
56285;SDS011;42191;47.562;9.686;2022-07-05T05:21:34;31.98;;;30.05;;
56285;SDS011;42191;47.562;9.686;2022-07-05T05:24:00;30.80;;;28.95;;
56285;SDS011;42191;47.562;9.686;2022-07-05T05:26:26;31.08;;;28.98;;
56285;SDS011;42191;47.562;9.686;2022-07-05T05:28:53;31.15;;;29.25;;
56285;SDS011;42191;47.562;9.686;2022-07-05T05:31:19;31.20;;;29.23;;
56285;SDS011;42191;47.562;9.686;2022-07-05T05:33:45;31.15;;;29.15;;
56285;SDS011;42191;47.562;9.686;2022-07-05T05:36:11;31.98;;;29.98;;
56285;SDS011;42191;47.562;9.686;2022-07-05T05:38:37;31.88;;;29.88;;
56285;SDS011;42191;47.562;9.686;2022-07-05T05:41:04;30.25;;;28.25;;
56285;SDS011;42191;47.562;9.686;2022-07-05T05:43:30;31.60;;;29.60;;
56285;SDS011;42191;47.562;9.686;2022-07-05T05:48:25;29.88;;;28.02;;
56285;SDS011;42191;47.562;9.686;2022-07-05T05:50:52;30.35;;;28.45;;
56285;SDS011;42191;47.562;9.686;2022-07-05T05:53:18;29.85;;;28.05;;
56285;SDS011;42191;47.562;9.686;2022-07-05T05:55:44;30.02;;;28.23;;
56285;SDS011;42191;47.562;9.686;2022-07-05T05:58:20;29.83;;;28.02;;
56285;SDS011;42191;47.562;9.686;2022-07-05T06:00:48;30.83;;;28.83;;
56285;SDS011;42191;47.562;9.686;2022-07-05T06:03:21;29.52;;;27.83;;
56285;SDS011;42191;47.562;9.686;2022-07-05T06:05:48;31.05;;;29.05;;
56285;SDS011;42191;47.562;9.686;2022-07-05T06:08:14;28.85;;;27.13;;
56285;SDS011;42191;47.562;9.686;2022-07-05T06:10:41;30.67;;;28.77;;
56285;SDS011;42191;47.562;9.686;2022-07-05T06:13:08;31.48;;;29.48;;
56285;SDS011;42191;47.562;9.686;2022-07-05T06:15:36;29.48;;;27.58;;
56285;SDS011;42191;47.562;9.686;2022-07-05T06:18:03;30.55;;;28.65;;
56285;SDS011;42191;47.562;9.686;2022-07-05T06:20:33;29.45;;;27.60;;
56285;SDS011;42191;47.562;9.686;2022-07-05T06:23:01;29.10;;;27.30;;
56285;SDS011;42191;47.562;9.686;2022-07-05T06:25:28;29.90;;;28.08;;
56285;SDS011;42191;47.562;9.686;2022-07-05T06:27:58;30.05;;;28.15;;
56285;SDS011;42191;47.562;9.686;2022-07-05T06:30:29;30.30;;;28.33;;
56285;SDS011;42191;47.562;9.686;2022-07-05T06:32:56;28.85;;;27.05;;
56285;SDS011;42191;47.562;9.686;2022-07-05T06:35:23;29.88;;;28.08;;
56285;SDS011;42191;47.562;9.686;2022-07-05T06:38:03;28.70;;;26.98;;
56285;SDS011;42191;47.562;9.686;2022-07-05T06:40:34;29.10;;;27.30;;
56285;SDS011;42191;47.562;9.686;2022-07-05T06:43:07;31.17;;;29.17;;
56285;SDS011;42191;47.562;9.686;2022-07-05T06:45:34;29.65;;;27.63;;
56285;SDS011;42191;47.562;9.686;2022-07-05T06:48:04;29.80;;;27.92;;
56285;SDS011;42191;47.562;9.686;2022-07-05T06:50:33;30.70;;;28.70;;
56285;SDS011;42191;47.562;9.686;2022-07-05T06:53:01;28.55;;;26.75;;
56285;SDS011;42191;47.562;9.686;2022-07-05T06:55:28;30.50;;;28.60;;
56285;SDS011;42191;47.562;9.686;2022-07-05T06:58:01;29.30;;;27.52;;
56285;SDS011;42191;47.562;9.686;2022-07-05T07:00:31;30.15;;;28.05;;
56285;SDS011;42191;47.562;9.686;2022-07-05T07:02:58;28.17;;;26.40;;
56285;SDS011;42191;47.562;9.686;2022-07-05T07:05:25;29.17;;;27.30;;
56285;SDS011;42191;47.562;9.686;2022-07-05T07:07:51;28.35;;;26.45;;
56285;SDS011;42191;47.562;9.686;2022-07-05T07:10:36;28.50;;;26.65;;
56285;SDS011;42191;47.562;9.686;2022-07-05T07:13:03;28.83;;;27.08;;
56285;SDS011;42191;47.562;9.686;2022-07-05T07:15:30;29.88;;;27.77;;
56285;SDS011;42191;47.562;9.686;2022-07-05T07:17:56;28.38;;;26.58;;
56285;SDS011;42191;47.562;9.686;2022-07-05T07:20:23;28.95;;;27.15;;
56285;SDS011;42191;47.562;9.686;2022-07-05T07:22:49;28.73;;;26.90;;
56285;SDS011;42191;47.562;9.686;2022-07-05T07:25:15;29.52;;;27.63;;
56285;SDS011;42191;47.562;9.686;2022-07-05T07:27:46;27.98;;;26.17;;
56285;SDS011;42191;47.562;9.686;2022-07-05T07:30:15;30.17;;;28.17;;
56285;SDS011;42191;47.562;9.686;2022-07-05T07:32:43;28.17;;;26.48;;
56285;SDS011;42191;47.562;9.686;2022-07-05T07:35:10;29.70;;;27.80;;
56285;SDS011;42191;47.562;9.686;2022-07-05T07:37:37;28.42;;;26.63;;
56285;SDS011;42191;47.562;9.686;2022-07-05T07:40:04;28.70;;;26.90;;
56285;SDS011;42191;47.562;9.686;2022-07-05T07:42:31;29.55;;;27.63;;
56285;SDS011;42191;47.562;9.686;2022-07-05T07:44:57;29.58;;;27.77;;
56285;SDS011;42191;47.562;9.686;2022-07-05T07:47:23;27.75;;;26.00;;
56285;SDS011;42191;47.562;9.686;2022-07-05T07:49:49;27.60;;;25.83;;
56285;SDS011;42191;47.562;9.686;2022-07-05T07:52:15;30.58;;;28.27;;
56285;SDS011;42191;47.562;9.686;2022-07-05T07:54:42;29.40;;;27.27;;
56285;SDS011;42191;47.562;9.686;2022-07-05T07:57:08;29.08;;;27.15;;
56285;SDS011;42191;47.562;9.686;2022-07-05T07:59:34;31.15;;;28.70;;
56285;SDS011;42191;47.562;9.686;2022-07-05T08:02:00;29.42;;;27.25;;
56285;SDS011;42191;47.562;9.686;2022-07-05T08:04:27;27.77;;;26.05;;
56285;SDS011;42191;47.562;9.686;2022-07-05T08:06:53;28.60;;;26.80;;
56285;SDS011;42191;47.562;9.686;2022-07-05T08:09:19;28.48;;;26.67;;
56285;SDS011;42191;47.562;9.686;2022-07-05T08:11:46;31.02;;;29.13;;
56285;SDS011;42191;47.562;9.686;2022-07-05T08:14:12;30.55;;;28.65;;
56285;SDS011;42191;47.562;9.686;2022-07-05T08:16:39;28.73;;;26.92;;
56285;SDS011;42191;47.562;9.686;2022-07-05T08:19:06;29.15;;;27.35;;
56285;SDS011;42191;47.562;9.686;2022-07-05T08:21:51;29.45;;;27.65;;
56285;SDS011;42191;47.562;9.686;2022-07-05T08:24:17;28.25;;;26.52;;
56285;SDS011;42191;47.562;9.686;2022-07-05T08:26:43;28.67;;;26.77;;
56285;SDS011;42191;47.562;9.686;2022-07-05T08:29:10;26.83;;;25.13;;
56285;SDS011;42191;47.562;9.686;2022-07-05T08:31:38;28.92;;;27.05;;
56285;SDS011;42191;47.562;9.686;2022-07-05T08:34:09;28.83;;;27.08;;
56285;SDS011;42191;47.562;9.686;2022-07-05T08:36:36;29.83;;;27.90;;
56285;SDS011;42191;47.562;9.686;2022-07-05T08:39:03;37.83;;;34.97;;
56285;SDS011;42191;47.562;9.686;2022-07-05T08:41:29;31.17;;;29.10;;
56285;SDS011;42191;47.562;9.686;2022-07-05T08:43:57;30.17;;;28.27;;
56285;SDS011;42191;47.562;9.686;2022-07-05T08:46:25;29.35;;;27.55;;
56285;SDS011;42191;47.562;9.686;2022-07-05T08:48:52;27.95;;;26.25;;
56285;SDS011;42191;47.562;9.686;2022-07-05T08:51:20;27.42;;;25.65;;
56285;SDS011;42191;47.562;9.686;2022-07-05T08:53:49;26.98;;;25.30;;
56285;SDS011;42191;47.562;9.686;2022-07-05T08:56:16;28.48;;;26.73;;
56285;SDS011;42191;47.562;9.686;2022-07-05T08:58:43;28.73;;;26.92;;
56285;SDS011;42191;47.562;9.686;2022-07-05T09:01:10;27.05;;;25.42;;
56285;SDS011;42191;47.562;9.686;2022-07-05T09:03:39;29.17;;;27.38;;
56285;SDS011;42191;47.562;9.686;2022-07-05T09:06:12;27.63;;;25.92;;
56285;SDS011;42191;47.562;9.686;2022-07-05T09:08:41;39.33;;;35.70;;
56285;SDS011;42191;47.562;9.686;2022-07-05T09:11:08;106.03;;;75.60;;
56285;SDS011;42191;47.562;9.686;2022-07-05T09:13:37;70.55;;;54.13;;
56285;SDS011;42191;47.562;9.686;2022-07-05T09:16:05;59.35;;;49.13;;
56285;SDS011;42191;47.562;9.686;2022-07-05T09:18:48;56.50;;;45.30;;
56285;SDS011;42191;47.562;9.686;2022-07-05T09:21:19;38.03;;;34.65;;
56285;SDS011;42191;47.562;9.686;2022-07-05T09:24:07;32.92;;;30.23;;
56285;SDS011;42191;47.562;9.686;2022-07-05T09:29:05;29.42;;;27.48;;
56285;SDS011;42191;47.562;9.686;2022-07-05T09:31:33;28.05;;;26.25;;
56285;SDS011;42191;47.562;9.686;2022-07-05T09:34:05;28.40;;;26.67;;
56285;SDS011;42191;47.562;9.686;2022-07-05T09:36:48;29.67;;;27.65;;
56285;SDS011;42191;47.562;9.686;2022-07-05T09:42:14;30.45;;;28.45;;
56285;SDS011;42191;47.562;9.686;2022-07-05T09:45:00;28.95;;;27.02;;
56285;SDS011;42191;47.562;9.686;2022-07-05T09:47:29;30.27;;;28.02;;
56285;SDS011;42191;47.562;9.686;2022-07-05T09:49:56;28.80;;;26.83;;
56285;SDS011;42191;47.562;9.686;2022-07-05T09:52:30;28.30;;;26.50;;
56285;SDS011;42191;47.562;9.686;2022-07-05T09:55:02;30.85;;;28.63;;
56285;SDS011;42191;47.562;9.686;2022-07-05T09:57:28;29.42;;;27.42;;
56285;SDS011;42191;47.562;9.686;2022-07-05T10:00:03;28.95;;;27.15;;
56285;SDS011;42191;47.562;9.686;2022-07-05T10:02:50;27.50;;;25.80;;
56285;SDS011;42191;47.562;9.686;2022-07-05T10:05:27;28.67;;;26.73;;
56285;SDS011;42191;47.562;9.686;2022-07-05T10:08:01;32.45;;;30.15;;
56285;SDS011;42191;47.562;9.686;2022-07-05T10:10:29;29.38;;;27.38;;
56285;SDS011;42191;47.562;9.686;2022-07-05T10:13:05;29.77;;;27.88;;
56285;SDS011;42191;47.562;9.686;2022-07-05T10:15:37;29.10;;;27.30;;
56285;SDS011;42191;47.562;9.686;2022-07-05T10:18:07;29.15;;;27.25;;
56285;SDS011;42191;47.562;9.686;2022-07-05T10:20:42;28.25;;;26.55;;
56285;SDS011;42191;47.562;9.686;2022-07-05T10:23:13;29.00;;;27.05;;
56285;SDS011;42191;47.562;9.686;2022-07-05T10:25:45;27.70;;;26.00;;
56285;SDS011;42191;47.562;9.686;2022-07-05T10:28:13;28.88;;;27.08;;
56285;SDS011;42191;47.562;9.686;2022-07-05T10:30:40;27.90;;;26.25;;
56285;SDS011;42191;47.562;9.686;2022-07-05T10:33:10;27.50;;;25.90;;
56285;SDS011;42191;47.562;9.686;2022-07-05T10:35:42;27.33;;;25.73;;
56285;SDS011;42191;47.562;9.686;2022-07-05T10:38:08;30.10;;;28.20;;
56285;SDS011;42191;47.562;9.686;2022-07-05T10:40:35;27.63;;;25.92;;
56285;SDS011;42191;47.562;9.686;2022-07-05T10:43:02;28.85;;;27.10;;
56285;SDS011;42191;47.562;9.686;2022-07-05T10:45:35;27.48;;;25.88;;
56285;SDS011;42191;47.562;9.686;2022-07-05T10:50:51;28.85;;;27.15;;
56285;SDS011;42191;47.562;9.686;2022-07-05T10:58:31;28.05;;;26.35;;
56285;SDS011;42191;47.562;9.686;2022-07-05T11:03:47;28.25;;;26.45;;
56285;SDS011;42191;47.562;9.686;2022-07-05T11:06:21;28.17;;;26.38;;
56285;SDS011;42191;47.562;9.686;2022-07-05T11:11:25;28.50;;;26.70;;
56285;SDS011;42191;47.562;9.686;2022-07-05T11:13:52;29.10;;;27.30;;
56285;SDS011;42191;47.562;9.686;2022-07-05T11:16:20;27.88;;;26.05;;
56285;SDS011;42191;47.562;9.686;2022-07-05T11:18:46;27.98;;;26.17;;
56285;SDS011;42191;47.562;9.686;2022-07-05T11:21:20;27.33;;;25.48;;
56285;SDS011;42191;47.562;9.686;2022-07-05T11:23:53;27.90;;;26.23;;
56285;SDS011;42191;47.562;9.686;2022-07-05T11:26:51;28.30;;;26.60;;
56285;SDS011;42191;47.562;9.686;2022-07-05T11:32:08;30.27;;;28.08;;
56285;SDS011;42191;47.562;9.686;2022-07-05T11:34:41;29.30;;;27.30;;
56285;SDS011;42191;47.562;9.686;2022-07-05T11:42:31;27.45;;;25.77;;
56285;SDS011;42191;47.562;9.686;2022-07-05T11:45:03;32.53;;;29.75;;
56285;SDS011;42191;47.562;9.686;2022-07-05T11:47:36;28.33;;;26.40;;
56285;SDS011;42191;47.562;9.686;2022-07-05T11:50:02;27.65;;;25.85;;
56285;SDS011;42191;47.562;9.686;2022-07-05T11:52:30;28.35;;;26.25;;
56285;SDS011;42191;47.562;9.686;2022-07-05T11:54:57;29.55;;;27.55;;
56285;SDS011;42191;47.562;9.686;2022-07-05T11:57:25;30.17;;;28.08;;
56285;SDS011;42191;47.562;9.686;2022-07-05T11:59:51;29.65;;;27.65;;
56285;SDS011;42191;47.562;9.686;2022-07-05T12:04:53;27.85;;;26.05;;
56285;SDS011;42191;47.562;9.686;2022-07-05T12:07:30;27.40;;;25.75;;
56285;SDS011;42191;47.562;9.686;2022-07-05T12:09:58;29.20;;;27.40;;
56285;SDS011;42191;47.562;9.686;2022-07-05T12:12:43;28.13;;;26.42;;
56285;SDS011;42191;47.562;9.686;2022-07-05T12:17:44;28.38;;;26.48;;
56285;SDS011;42191;47.562;9.686;2022-07-05T12:20:23;26.88;;;25.00;;
56285;SDS011;42191;47.562;9.686;2022-07-05T12:22:50;27.35;;;25.65;;
56285;SDS011;42191;47.562;9.686;2022-07-05T12:25:20;26.55;;;24.92;;
56285;SDS011;42191;47.562;9.686;2022-07-05T12:27:49;27.27;;;25.67;;
56285;SDS011;42191;47.562;9.686;2022-07-05T12:30:17;28.30;;;26.50;;
56285;SDS011;42191;47.562;9.686;2022-07-05T12:33:02;26.08;;;24.38;;
56285;SDS011;42191;47.562;9.686;2022-07-05T12:35:39;28.00;;;26.30;;
56285;SDS011;42191;47.562;9.686;2022-07-05T12:38:10;27.30;;;25.60;;
56285;SDS011;42191;47.562;9.686;2022-07-05T12:41:01;27.30;;;25.70;;
56285;SDS011;42191;47.562;9.686;2022-07-05T12:43:27;27.13;;;25.20;;
56285;SDS011;42191;47.562;9.686;2022-07-05T12:46:00;27.80;;;26.00;;
56285;SDS011;42191;47.562;9.686;2022-07-05T12:48:34;27.25;;;25.35;;
56285;SDS011;42191;47.562;9.686;2022-07-05T12:51:04;27.45;;;25.65;;
56285;SDS011;42191;47.562;9.686;2022-07-05T12:53:32;26.80;;;25.10;;
56285;SDS011;42191;47.562;9.686;2022-07-05T12:56:21;28.17;;;26.52;;
56285;SDS011;42191;47.562;9.686;2022-07-05T12:59:10;27.17;;;25.58;;
56285;SDS011;42191;47.562;9.686;2022-07-05T13:01:37;27.95;;;26.25;;
56285;SDS011;42191;47.562;9.686;2022-07-05T13:04:14;39.58;;;36.25;;
56285;SDS011;42191;47.562;9.686;2022-07-05T13:14:39;26.95;;;25.15;;
56285;SDS011;42191;47.562;9.686;2022-07-05T13:17:07;24.27;;;22.77;;
56285;SDS011;42191;47.562;9.686;2022-07-05T13:19:35;23.15;;;21.75;;
56285;SDS011;42191;47.562;9.686;2022-07-05T13:22:03;22.77;;;21.35;;
56285;SDS011;42191;47.562;9.686;2022-07-05T13:24:29;22.80;;;21.30;;
56285;SDS011;42191;47.562;9.686;2022-07-05T13:26:56;21.65;;;20.35;;
56285;SDS011;42191;47.562;9.686;2022-07-05T13:29:22;24.85;;;23.15;;
56285;SDS011;42191;47.562;9.686;2022-07-05T13:31:48;22.40;;;21.00;;
56285;SDS011;42191;47.562;9.686;2022-07-05T13:34:15;20.67;;;19.45;;
56285;SDS011;42191;47.562;9.686;2022-07-05T13:36:41;20.77;;;19.38;;
56285;SDS011;42191;47.562;9.686;2022-07-05T13:39:07;28.52;;;26.27;;
56285;SDS011;42191;47.562;9.686;2022-07-05T13:41:33;22.17;;;20.77;;
56285;SDS011;42191;47.562;9.686;2022-07-05T13:43:59;20.95;;;19.65;;
56285;SDS011;42191;47.562;9.686;2022-07-05T13:46:26;20.65;;;19.25;;
56285;SDS011;42191;47.562;9.686;2022-07-05T13:48:52;20.85;;;19.50;;
56285;SDS011;42191;47.562;9.686;2022-07-05T13:51:18;26.45;;;24.55;;
56285;SDS011;42191;47.562;9.686;2022-07-05T13:53:45;22.52;;;21.13;;
56285;SDS011;42191;47.562;9.686;2022-07-05T13:56:11;20.70;;;19.48;;
56285;SDS011;42191;47.562;9.686;2022-07-05T13:58:37;20.52;;;19.30;;
56285;SDS011;42191;47.562;9.686;2022-07-05T14:01:03;20.23;;;18.92;;
56285;SDS011;42191;47.562;9.686;2022-07-05T14:03:30;20.80;;;19.60;;
56285;SDS011;42191;47.562;9.686;2022-07-05T14:05:56;22.67;;;21.20;;
56285;SDS011;42191;47.562;9.686;2022-07-05T14:08:23;21.27;;;19.85;;
56285;SDS011;42191;47.562;9.686;2022-07-05T14:10:58;20.33;;;19.13;;
56285;SDS011;42191;47.562;9.686;2022-07-05T14:13:25;20.02;;;18.83;;
56285;SDS011;42191;47.562;9.686;2022-07-05T14:15:51;20.55;;;19.25;;
56285;SDS011;42191;47.562;9.686;2022-07-05T14:18:18;20.25;;;19.05;;
56285;SDS011;42191;47.562;9.686;2022-07-05T14:20:45;20.10;;;18.90;;
56285;SDS011;42191;47.562;9.686;2022-07-05T14:23:12;20.48;;;19.27;;
56285;SDS011;42191;47.562;9.686;2022-07-05T14:25:40;21.48;;;20.08;;
56285;SDS011;42191;47.562;9.686;2022-07-05T14:28:06;21.55;;;20.25;;
56285;SDS011;42191;47.562;9.686;2022-07-05T14:30:34;23.02;;;21.33;;
56285;SDS011;42191;47.562;9.686;2022-07-05T14:33:01;21.95;;;20.55;;
56285;SDS011;42191;47.562;9.686;2022-07-05T14:35:28;21.00;;;19.70;;
56285;SDS011;42191;47.562;9.686;2022-07-05T14:37:55;20.60;;;19.40;;
56285;SDS011;42191;47.562;9.686;2022-07-05T14:40:22;20.70;;;19.40;;
56285;SDS011;42191;47.562;9.686;2022-07-05T14:42:49;20.25;;;19.05;;
56285;SDS011;42191;47.562;9.686;2022-07-05T14:45:19;21.20;;;19.80;;
56285;SDS011;42191;47.562;9.686;2022-07-05T14:47:46;20.90;;;19.60;;
56285;SDS011;42191;47.562;9.686;2022-07-05T14:50:13;20.83;;;19.52;;
56285;SDS011;42191;47.562;9.686;2022-07-05T14:52:39;20.40;;;19.20;;
56285;SDS011;42191;47.562;9.686;2022-07-05T14:55:06;20.75;;;19.40;;
56285;SDS011;42191;47.562;9.686;2022-07-05T14:57:34;20.60;;;19.30;;
56285;SDS011;42191;47.562;9.686;2022-07-05T15:00:03;20.90;;;19.63;;
56285;SDS011;42191;47.562;9.686;2022-07-05T15:02:31;24.35;;;22.65;;
56285;SDS011;42191;47.562;9.686;2022-07-05T15:04:57;21.27;;;19.88;;
56285;SDS011;42191;47.562;9.686;2022-07-05T15:07:23;23.98;;;22.00;;
56285;SDS011;42191;47.562;9.686;2022-07-05T15:09:49;48.00;;;43.80;;
56285;SDS011;42191;47.562;9.686;2022-07-05T15:12:15;34.88;;;32.08;;